createdAt,value
2022-08-04T00:01:22.772Z,2.63
2022-08-04T00:05:36.708Z,2.80
2022-08-04T00:09:51.026Z,2.58
2022-08-04T00:14:03.127Z,2.35
2022-08-04T00:18:11.229Z,2.50
2022-08-04T00:22:16.292Z,2.40
2022-08-04T00:26:21.822Z,2.70
2022-08-04T00:30:25.914Z,2.60
2022-08-04T00:34:30.826Z,2.42
2022-08-04T00:38:35.572Z,2.80
2022-08-04T00:42:58.335Z,2.60
2022-08-04T00:47:13.549Z,2.50
2022-08-04T00:51:26.981Z,2.55
2022-08-04T00:56:01.617Z,2.25
2022-08-04T01:00:09.531Z,2.80
2022-08-04T01:04:22.446Z,2.40
2022-08-04T01:08:42.758Z,2.78
2022-08-04T01:13:03.009Z,2.55
2022-08-04T01:17:21.850Z,2.63
2022-08-04T01:21:54.753Z,2.50
2022-08-04T01:26:42.220Z,2.72
2022-08-04T01:30:50.891Z,2.63
2022-08-04T01:35:02.058Z,2.83
2022-08-04T01:39:26.044Z,2.63
2022-08-04T01:43:30.947Z,2.67
2022-08-04T01:47:37.845Z,2.65
2022-08-04T01:51:41.636Z,2.65
2022-08-04T01:55:58.070Z,2.63
2022-08-04T02:00:02.403Z,2.70
2022-08-04T02:04:33.649Z,2.60
2022-08-04T02:09:11.550Z,2.70
2022-08-04T02:13:24.872Z,2.05
2022-08-04T02:17:33.159Z,2.60
2022-08-04T02:21:42.412Z,2.50
2022-08-04T02:25:49.059Z,2.60
2022-08-04T02:29:59.763Z,2.75
2022-08-04T02:34:10.189Z,2.60
2022-08-04T02:38:26.071Z,2.63
2022-08-04T02:42:30.552Z,2.58
2022-08-04T02:46:36.506Z,2.90
2022-08-04T02:50:41.961Z,2.53
2022-08-04T02:54:48.636Z,2.40
2022-08-04T02:58:57.105Z,2.50
2022-08-04T03:03:16.831Z,2.35
2022-08-04T03:08:04.207Z,2.75
2022-08-04T03:12:31.261Z,2.55
2022-08-04T03:16:57.796Z,2.70
2022-08-04T03:21:48.407Z,2.53
2022-08-04T03:26:31.443Z,3.15
2022-08-04T03:30:50.424Z,2.67
2022-08-04T03:35:27.166Z,2.53
2022-08-04T03:40:18.208Z,2.63
2022-08-04T03:44:51.031Z,2.70
2022-08-04T03:49:24.873Z,2.80
2022-08-04T03:53:48.821Z,2.85
2022-08-04T03:58:18.962Z,2.80
2022-08-04T04:02:50.697Z,2.80
2022-08-04T04:07:44.973Z,2.53
2022-08-04T04:12:13.940Z,2.78
2022-08-04T04:16:34.059Z,2.50
2022-08-04T04:21:08.302Z,2.80
2022-08-04T04:25:31.651Z,2.53
2022-08-04T04:29:59.234Z,2.70
2022-08-04T04:34:10.553Z,2.90
2022-08-04T04:38:35.484Z,3.58
2022-08-04T04:43:12.351Z,2.97
2022-08-04T04:48:07.530Z,3.20
2022-08-04T04:51:51.429Z,2.97
2022-08-04T04:56:04.705Z,2.92
2022-08-04T05:00:13.611Z,3.10
2022-08-04T05:04:45.574Z,3.97
2022-08-04T05:09:05.136Z,4.20
2022-08-04T05:14:36.729Z,4.07
2022-08-04T05:18:02.023Z,3.90
2022-08-04T05:22:14.173Z,4.43
2022-08-04T05:26:20.321Z,3.75
2022-08-04T05:30:27.153Z,3.92
2022-08-04T05:34:36.831Z,3.55
2022-08-04T05:38:43.771Z,3.90
2022-08-04T05:42:49.039Z,4.00
2022-08-04T05:46:55.945Z,3.78
2022-08-04T05:51:02.750Z,3.65
2022-08-04T05:55:08.478Z,3.45
2022-08-04T05:59:14.012Z,3.40
2022-08-04T06:03:19.563Z,3.55
2022-08-04T06:07:26.455Z,3.50
2022-08-04T06:11:30.681Z,3.35
2022-08-04T06:15:57.458Z,3.13
2022-08-04T06:20:18.158Z,3.33
2022-08-04T06:24:28.710Z,3.33
2022-08-04T06:28:32.745Z,3.50
2022-08-04T06:32:47.835Z,3.45
2022-08-04T06:36:51.917Z,3.47
2022-08-04T06:40:58.115Z,3.40
2022-08-04T06:45:04.522Z,3.22
2022-08-04T06:49:08.957Z,3.72
2022-08-04T06:53:12.452Z,2.85
2022-08-04T06:57:21.462Z,3.03
2022-08-04T07:01:28.138Z,2.90
2022-08-04T07:05:32.742Z,3.00
2022-08-04T07:09:36.236Z,3.22
2022-08-04T07:13:45.159Z,2.83
2022-08-04T07:17:52.374Z,2.80
2022-08-04T07:22:16.161Z,2.83
2022-08-04T07:26:19.946Z,2.60
2022-08-04T07:30:27.838Z,2.75
2022-08-04T07:34:32.872Z,2.78
2022-08-04T07:38:48.436Z,2.30
2022-08-04T07:42:54.500Z,2.50
2022-08-04T07:46:59.866Z,2.35
2022-08-04T07:51:03.455Z,2.85
2022-08-04T07:55:15.791Z,2.70
2022-08-04T07:59:19.054Z,2.67
2022-08-04T08:03:24.970Z,2.20
2022-08-04T08:07:28.343Z,2.75
2022-08-04T08:12:37.698Z,2.53
2022-08-04T08:15:55.671Z,2.60
2022-08-04T08:20:00.305Z,2.53
2022-08-04T08:24:05.089Z,2.65
2022-08-04T08:28:17.414Z,2.60
2022-08-04T08:32:21.297Z,2.58
2022-08-04T08:36:35.503Z,2.70
2022-08-04T08:40:49.614Z,2.38
2022-08-04T08:45:24.746Z,2.30
2022-08-04T08:50:01.070Z,2.45
2022-08-04T08:54:31.048Z,2.10
2022-08-04T08:58:45.729Z,2.53
2022-08-04T09:03:23.104Z,2.45
2022-08-04T09:07:57.687Z,2.30
2022-08-04T09:12:10.647Z,2.13
2022-08-04T09:16:20.534Z,1.90
2022-08-04T09:20:32.199Z,2.13
2022-08-04T09:24:48.493Z,2.30
2022-08-04T09:29:00.958Z,2.00
2022-08-04T09:33:17.770Z,1.90
2022-08-04T09:37:46.424Z,1.90
2022-08-04T09:42:02.922Z,1.90
2022-08-04T09:46:16.240Z,1.95
2022-08-04T09:50:31.169Z,1.90
2022-08-04T09:54:46.426Z,2.10
2022-08-04T09:58:58.335Z,1.90
2022-08-04T10:03:02.995Z,2.00
2022-08-04T10:07:30.873Z,1.88
2022-08-04T10:11:56.154Z,1.60
2022-08-04T10:16:12.972Z,1.77
2022-08-04T10:20:44.653Z,1.70
2022-08-04T10:24:59.922Z,1.77
2022-08-04T10:29:08.043Z,1.83
2022-08-04T10:33:19.460Z,1.40
2022-08-04T10:37:59.814Z,1.60
2022-08-04T10:42:03.885Z,1.40
2022-08-04T10:46:11.296Z,1.40
2022-08-04T10:50:15.870Z,1.70
2022-08-04T10:54:27.030Z,1.55
2022-08-04T10:58:47.536Z,1.50
2022-08-04T11:02:59.713Z,1.63
2022-08-04T11:07:03.927Z,1.45
2022-08-04T11:11:14.555Z,1.58
2022-08-04T11:15:31.390Z,1.50
2022-08-04T11:19:44.734Z,1.45
2022-08-04T11:24:00.813Z,1.58
2022-08-04T11:28:15.066Z,1.50
2022-08-04T11:32:21.381Z,1.60
2022-08-04T11:36:35.766Z,1.60
2022-08-04T11:40:55.829Z,1.73
2022-08-04T11:45:11.426Z,1.60
2022-08-04T11:49:30.525Z,1.40
2022-08-04T11:53:38.458Z,1.50
2022-08-04T11:57:42.126Z,1.40
2022-08-04T12:02:08.058Z,1.50
2022-08-04T12:06:18.777Z,1.48
2022-08-04T12:10:40.943Z,1.50
2022-08-04T12:14:55.728Z,1.50
2022-08-04T12:19:04.185Z,1.60
2022-08-04T12:23:16.701Z,1.42
2022-08-04T12:27:25.908Z,1.88
2022-08-04T12:31:41.695Z,1.60
2022-08-04T12:36:10.141Z,1.55
2022-08-04T12:40:29.770Z,1.58
2022-08-04T12:44:37.301Z,1.60
2022-08-04T12:48:46.704Z,1.58
2022-08-04T12:53:04.117Z,1.70
2022-08-04T12:57:09.696Z,1.50
2022-08-04T13:02:07.488Z,1.92
2022-08-04T13:05:40.175Z,1.40
2022-08-04T13:09:46.129Z,1.50
2022-08-04T13:14:17.252Z,1.60
2022-08-04T13:18:18.584Z,1.50
2022-08-04T13:22:27.331Z,1.58
2022-08-04T13:26:44.551Z,1.60
2022-08-04T13:31:01.020Z,1.65
2022-08-04T13:35:05.974Z,1.35
2022-08-04T13:39:17.387Z,1.42
2022-08-04T13:44:15.306Z,1.55
2022-08-04T13:47:53.343Z,1.45
2022-08-04T13:51:59.256Z,1.63
2022-08-04T13:56:06.378Z,1.48
2022-08-04T14:00:12.624Z,1.52
2022-08-04T14:04:21.808Z,1.52
2022-08-04T14:08:29.034Z,1.42
2022-08-04T14:12:45.349Z,1.50
2022-08-04T14:16:59.522Z,1.50
2022-08-04T14:21:05.791Z,1.45
2022-08-04T14:25:15.440Z,1.50
2022-08-04T14:29:27.399Z,1.30
2022-08-04T14:34:02.630Z,1.42
2022-08-04T14:38:06.919Z,1.80
2022-08-04T14:42:10.667Z,1.40
2022-08-04T14:46:14.067Z,1.50
2022-08-04T14:50:19.013Z,1.63
2022-08-04T14:54:29.345Z,1.60
2022-08-04T14:58:39.228Z,1.50
2022-08-04T15:02:44.234Z,1.50
2022-08-04T15:06:48.916Z,1.27
2022-08-04T15:10:52.858Z,1.40
2022-08-04T15:15:05.251Z,1.40
2022-08-04T15:19:17.511Z,1.40
2022-08-04T15:23:22.220Z,1.33
2022-08-04T15:27:28.431Z,1.33
2022-08-04T15:32:06.395Z,1.30
2022-08-04T15:36:14.070Z,1.40
2022-08-04T15:40:32.803Z,1.27
2022-08-04T15:45:06.154Z,1.30
2022-08-04T15:49:20.392Z,1.67
2022-08-04T15:53:23.641Z,1.33
2022-08-04T15:58:01.749Z,1.67
2022-08-04T16:02:30.597Z,1.45
2022-08-04T16:06:47.498Z,1.42
2022-08-04T16:10:51.688Z,1.33
2022-08-04T16:14:56.363Z,1.52
2022-08-04T16:19:05.848Z,1.30
2022-08-04T16:23:53.112Z,1.30
2022-08-04T16:27:55.623Z,1.40
2022-08-04T16:32:15.003Z,1.40
2022-08-04T16:36:56.417Z,1.30
2022-08-04T16:41:02.230Z,1.48
2022-08-04T16:45:13.145Z,1.35
2022-08-04T16:49:17.759Z,1.45
2022-08-04T16:54:02.598Z,1.23
2022-08-04T16:57:47.985Z,1.42
2022-08-04T17:01:53.214Z,1.30
2022-08-04T17:06:18.447Z,1.35
2022-08-04T17:10:31.577Z,1.20
2022-08-04T17:14:34.882Z,1.30
2022-08-04T17:18:40.206Z,1.38
2022-08-04T17:22:45.141Z,1.00
2022-08-04T17:26:54.615Z,1.20
2022-08-04T17:31:00.465Z,1.33
2022-08-04T17:35:07.801Z,1.33
2022-08-04T17:39:19.994Z,1.20
2022-08-04T17:44:04.923Z,1.50
2022-08-04T17:48:00.685Z,1.33
2022-08-04T17:52:11.166Z,1.60
2022-08-04T17:56:31.726Z,1.48
2022-08-04T18:00:36.623Z,1.65
2022-08-04T18:05:07.033Z,1.20
2022-08-04T18:09:22.916Z,1.40
2022-08-04T18:13:42.830Z,1.67
2022-08-04T18:18:21.389Z,1.58
2022-08-04T18:22:12.715Z,1.60
2022-08-04T18:26:23.590Z,1.60
2022-08-04T18:30:38.452Z,1.45
2022-08-04T18:34:54.905Z,1.77
2022-08-04T18:38:59.206Z,1.42
2022-08-04T18:43:15.678Z,1.73
2022-08-04T18:47:23.001Z,1.80
2022-08-04T18:51:31.814Z,1.70
2022-08-04T18:55:56.441Z,1.80
2022-08-04T18:59:58.822Z,1.90
2022-08-04T19:04:32.316Z,2.10
2022-08-04T19:08:33.068Z,2.13
2022-08-04T19:12:38.504Z,2.03
2022-08-04T19:16:45.901Z,1.92
2022-08-04T19:20:52.332Z,2.10
2022-08-04T19:24:55.426Z,1.83
2022-08-04T19:28:58.916Z,2.10
2022-08-04T19:33:02.169Z,2.25
2022-08-04T19:37:10.922Z,2.00
2022-08-04T19:41:18.663Z,1.63
2022-08-04T19:45:41.758Z,2.22
2022-08-04T19:50:03.873Z,2.10
2022-08-04T19:54:16.780Z,1.95
2022-08-04T19:58:27.348Z,1.92
2022-08-04T20:02:31.557Z,2.10
2022-08-04T20:06:38.063Z,2.10
2022-08-04T20:10:51.233Z,2.05
2022-08-04T20:14:55.128Z,1.80
2022-08-04T20:23:47.640Z,2.13
2022-08-04T20:28:00.234Z,2.00
2022-08-04T20:32:05.503Z,2.10
2022-08-04T20:36:12.046Z,2.05
2022-08-04T20:40:16.577Z,2.22
2022-08-04T20:44:22.287Z,2.00
2022-08-04T20:48:29.024Z,2.03
2022-08-04T20:52:33.267Z,2.30
2022-08-04T20:56:36.920Z,2.05
2022-08-04T21:00:41.601Z,1.85
2022-08-04T21:04:46.406Z,2.00
2022-08-04T21:08:57.307Z,1.95
2022-08-04T21:13:00.941Z,2.40
2022-08-04T21:17:07.325Z,2.20
2022-08-04T21:21:11.612Z,2.20
2022-08-04T21:25:16.300Z,2.00
2022-08-04T21:29:20.243Z,2.22
2022-08-04T21:33:50.855Z,2.05
2022-08-04T21:37:56.580Z,1.73
2022-08-04T21:46:24.897Z,2.25
2022-08-04T21:50:30.660Z,1.90
2022-08-04T21:54:33.954Z,1.88
2022-08-04T21:58:37.075Z,2.30
2022-08-04T22:02:40.118Z,2.28
2022-08-04T22:06:51.687Z,2.25
2022-08-04T22:10:55.803Z,2.60
2022-08-04T22:15:01.109Z,2.28
2022-08-04T22:19:05.611Z,2.70
2022-08-04T22:23:17.011Z,2.30
2022-08-04T22:27:36.373Z,2.60
2022-08-04T22:31:53.198Z,2.38
2022-08-04T22:35:59.697Z,2.22
2022-08-04T22:40:06.057Z,2.53
2022-08-04T22:44:15.359Z,2.78
2022-08-04T22:48:19.402Z,2.67
2022-08-04T22:52:27.353Z,2.70
2022-08-04T22:56:38.017Z,2.47
2022-08-04T23:00:42.248Z,2.40
2022-08-04T23:04:45.413Z,2.83
2022-08-04T23:08:53.638Z,2.25
2022-08-04T23:12:58.263Z,2.47
2022-08-04T23:17:07.379Z,2.42
2022-08-04T23:21:12.454Z,2.75
2022-08-04T23:25:17.631Z,2.55
2022-08-04T23:29:22.349Z,2.53
2022-08-04T23:33:49.286Z,2.53
2022-08-04T23:37:57.419Z,2.50
2022-08-04T23:42:01.287Z,2.38
2022-08-04T23:46:08.669Z,2.25
2022-08-04T23:50:12.780Z,2.45
2022-08-04T23:54:15.903Z,2.63
2022-08-04T23:58:29.222Z,2.30
